Time;durP1;ratioP1;P1;durP2;ratioP2;P2;SDS_P1;SDS_P2;PMS_P1;PMS_P2;Temp;Humidity;BMP_temperature;BMP_pressure;BME280_temperature;BME280_humidity;BME280_pressure;Samples;Min_cycle;Max_cycle;Signal;HPM_P1;HPM_P2
2023/01/17 00:02:34;;;;;;;6.50;5.60;;;;;;;3.71;87.84;98044.91;108610;1276;37242;-73
2023/01/17 00:10:58;;;;;;;5.70;4.80;;;;;;;3.61;88.15;98030.20;108627;1257;37143;-75
2023/01/17 00:13:30;;;;;;;6.30;5.30;;;;;;;3.62;88.06;98030.64;108472;1260;36356;-75
2023/01/17 00:16:01;;;;;;;5.90;5.30;;;;;;;3.64;88.28;98032.48;108604;1266;37270;-73
2023/01/17 00:18:32;;;;;;;6.20;5.00;;;;;;;3.62;88.13;98024.59;108615;1253;36187;-76
2023/01/17 01:35:59;;;;;;;10.70;8.40;;;;;;;3.84;89.81;97927.67;108567;1261;37465;-74
2023/01/17 01:38:30;;;;;;;11.20;8.70;;;;;;;3.87;90.16;97924.56;108615;1253;37096;-75
2023/01/17 01:41:02;;;;;;;10.20;8.80;;;;;;;3.90;90.00;97920.30;108610;1258;37436;-74
2023/01/17 01:43:46;;;;;;;10.90;8.30;;;;;;;3.94;90.05;97918.05;108603;1253;37182;-74
2023/01/17 01:46:21;;;;;;;9.60;8.00;;;;;;;3.99;89.89;97901.08;108522;1276;39132;-74
2023/01/17 01:48:54;;;;;;;10.40;8.90;;;;;;;4.01;90.09;97892.18;108651;1276;37305;-74
2023/01/17 01:51:29;;;;;;;10.90;9.10;;;;;;;4.02;89.82;97885.73;108510;1267;36988;-75
2023/01/17 01:54:02;;;;;;;12.50;9.10;;;;;;;4.03;90.08;97886.55;108480;1258;37354;-75
2023/01/17 01:56:39;;;;;;;10.80;9.10;;;;;;;4.03;89.91;97882.23;108597;1258;37009;-74
2023/01/17 01:59:12;;;;;;;10.20;8.40;;;;;;;4.02;90.10;97876.60;108594;1253;38698;-74
2023/01/17 02:01:43;;;;;;;11.30;8.60;;;;;;;4.06;90.23;97869.15;108637;1257;37256;-75
2023/01/17 02:04:14;;;;;;;10.10;8.60;;;;;;;4.12;89.95;97873.14;108583;1265;37333;-74
2023/01/17 02:06:49;;;;;;;13.00;9.30;;;;;;;4.14;89.90;97866.98;108600;1265;37051;-74
2023/01/17 02:09:24;;;;;;;12.70;9.60;;;;;;;4.15;89.86;97865.56;108619;1276;37034;-75
2023/01/17 02:11:56;;;;;;;11.10;9.40;;;;;;;4.13;89.94;97868.76;108650;1266;37279;-75
2023/01/17 02:14:31;;;;;;;11.40;8.70;;;;;;;4.12;89.98;97865.54;108610;1265;37169;-76
2023/01/17 02:17:14;;;;;;;9.90;7.90;;;;;;;4.10;89.74;97862.34;108626;1256;38477;-76
2023/01/17 02:20:26;;;;;;;10.80;8.60;;;;;;;4.10;89.79;97862.73;108641;1254;37545;-75
2023/01/17 02:24:03;;;;;;;13.70;10.30;;;;;;;4.08;89.67;97862.28;108685;1257;37024;-76
2023/01/17 02:27:03;;;;;;;10.50;8.80;;;;;;;4.09;90.05;97853.48;108623;1260;37608;-74
2023/01/17 02:30:20;;;;;;;9.60;8.60;;;;;;;4.09;90.04;97852.38;108522;1276;174762;-75
2023/01/17 02:33:16;;;;;;;11.10;8.40;;;;;;;4.12;89.94;97847.59;108621;1276;37586;-76
2023/01/17 02:35:58;;;;;;;11.70;9.50;;;;;;;4.14;89.98;97837.98;108541;1269;36976;-75
2023/01/17 02:38:39;;;;;;;12.20;9.90;;;;;;;4.15;90.07;97838.13;108645;1276;37063;-74
2023/01/17 02:41:14;;;;;;;11.30;9.40;;;;;;;4.15;89.91;97835.21;108644;1257;37116;-75
2023/01/17 02:43:45;;;;;;;11.50;8.40;;;;;;;4.16;90.09;97834.28;108509;1255;39062;-75
2023/01/17 02:46:16;;;;;;;10.50;8.90;;;;;;;4.17;90.10;97834.92;108694;1258;37265;-75
2023/01/17 02:48:49;;;;;;;10.90;9.40;;;;;;;4.17;89.79;97837.67;108663;1254;36336;-74
2023/01/17 02:51:44;;;;;;;11.10;9.20;;;;;;;4.18;89.79;97837.44;108626;1266;38492;-73
2023/01/17 02:54:54;;;;;;;12.90;9.40;;;;;;;4.20;90.14;97837.71;108582;1261;37223;-73
2023/01/17 02:57:42;;;;;;;11.10;9.40;;;;;;;4.17;89.92;97835.77;108569;1276;37743;-75
2023/01/17 03:00:21;;;;;;;10.10;8.90;;;;;;;4.17;90.21;97834.77;108706;1257;36507;-74
2023/01/17 03:03:00;;;;;;;10.80;8.30;;;;;;;4.18;90.17;97831.95;108626;1266;38295;-74
2023/01/17 03:05:36;;;;;;;12.30;10.00;;;;;;;4.22;90.20;97824.67;108341;1261;39351;-75
2023/01/17 03:08:12;;;;;;;12.40;9.30;;;;;;;4.23;90.15;97824.74;108601;1253;37102;-75
2023/01/17 03:10:43;;;;;;;10.00;8.90;;;;;;;4.22;89.88;97823.27;108662;1276;37328;-75
2023/01/17 03:13:13;;;;;;;11.00;8.30;;;;;;;4.22;90.04;97824.84;108613;1276;37573;-75
2023/01/17 03:15:45;;;;;;;10.40;8.60;;;;;;;4.22;90.17;97822.73;108599;1257;37293;-73
2023/01/17 03:18:19;;;;;;;11.60;8.60;;;;;;;4.22;89.66;97825.36;108652;1259;37193;-75
2023/01/17 03:20:53;;;;;;;11.00;9.00;;;;;;;4.20;89.81;97820.95;108651;1276;37178;-74
2023/01/17 03:23:26;;;;;;;13.10;9.30;;;;;;;4.19;89.81;97819.96;108611;1257;37227;-74
2023/01/17 03:25:59;;;;;;;10.90;8.80;;;;;;;4.15;89.72;97822.26;108600;1276;37024;-75
2023/01/17 03:28:30;;;;;;;10.80;8.30;;;;;;;4.11;89.57;97820.39;108642;1257;37114;-76
2023/01/17 03:31:02;;;;;;;11.50;9.00;;;;;;;4.11;89.83;97817.28;108621;1258;37091;-75
2023/01/17 03:33:34;;;;;;;12.20;9.70;;;;;;;4.11;90.02;97816.77;108542;1269;38254;-73
2023/01/17 03:36:06;;;;;;;11.70;9.10;;;;;;;4.10;89.83;97810.27;108614;1276;37180;-74
2023/01/17 03:38:37;;;;;;;11.00;8.60;;;;;;;4.08;89.94;97811.75;108588;1276;37077;-73
2023/01/17 03:41:08;;;;;;;9.60;8.40;;;;;;;4.06;90.00;97811.02;108632;1257;37280;-75
2023/01/17 03:43:39;;;;;;;10.10;8.50;;;;;;;4.06;90.18;97805.96;108570;1276;37095;-74
2023/01/17 03:46:21;;;;;;;11.50;8.40;;;;;;;4.09;90.29;97806.02;108494;1256;37123;-74
2023/01/17 03:48:53;;;;;;;10.20;8.70;;;;;;;4.09;89.92;97805.67;108607;1276;37167;-74
2023/01/17 03:51:27;;;;;;;10.70;8.40;;;;;;;4.07;90.10;97807.81;108548;1260;38497;-75
2023/01/17 03:53:58;;;;;;;10.40;8.10;;;;;;;4.07;89.83;97807.16;108628;1260;37085;-76
2023/01/17 03:56:30;;;;;;;11.30;8.10;;;;;;;4.03;89.87;97808.89;108496;1260;36484;-74
2023/01/17 03:59:02;;;;;;;10.20;8.20;;;;;;;4.01;90.06;97810.92;108579;1276;37615;-74
2023/01/17 04:01:33;;;;;;;11.10;8.50;;;;;;;4.00;89.91;97807.84;108498;1273;175037;-74
2023/01/17 04:04:05;;;;;;;11.90;8.80;;;;;;;4.00;89.90;97801.80;107928;1269;912160;-74
2023/01/17 04:06:38;;;;;;;10.60;8.10;;;;;;;4.00;89.81;97801.99;108579;1261;37113;-75
2023/01/17 04:09:09;;;;;;;10.20;7.60;;;;;;;4.00;89.83;97804.24;108497;1259;36342;-76
2023/01/17 04:11:40;;;;;;;11.10;8.10;;;;;;;3.98;89.67;97812.30;108551;1258;36960;-74
2023/01/17 04:14:13;;;;;;;12.20;8.70;;;;;;;3.97;89.78;97814.05;108241;1264;36092;-75
2023/01/17 04:16:45;;;;;;;10.80;8.50;;;;;;;3.97;89.87;97808.38;108468;1260;37109;-72
2023/01/17 04:19:17;;;;;;;10.50;8.50;;;;;;;3.96;89.84;97805.86;108497;1277;37485;-75
2023/01/17 04:21:48;;;;;;;10.70;7.80;;;;;;;3.93;89.68;97807.56;108549;1265;37660;-74
2023/01/17 04:24:19;;;;;;;9.40;7.90;;;;;;;3.90;89.83;97808.92;108417;1255;38208;-73
2023/01/17 04:26:50;;;;;;;10.90;8.10;;;;;;;3.90;89.78;97804.95;108382;1277;37228;-75
2023/01/17 04:29:27;;;;;;;10.10;8.60;;;;;;;3.90;89.68;97806.00;108485;1277;37834;-75
2023/01/17 04:32:01;;;;;;;9.70;8.40;;;;;;;3.89;89.65;97804.45;108507;1258;36441;-74
2023/01/17 04:34:35;;;;;;;10.60;8.00;;;;;;;3.88;89.76;97807.64;108536;1265;37291;-75
2023/01/17 04:37:09;;;;;;;10.20;7.90;;;;;;;3.88;89.75;97806.39;108521;1258;37287;-75
2023/01/17 04:39:40;;;;;;;10.90;7.90;;;;;;;3.86;89.57;97809.95;108352;1264;37060;-75
2023/01/17 04:42:11;;;;;;;9.10;7.90;;;;;;;3.86;89.32;97813.27;108523;1254;36965;-75
2023/01/17 04:44:43;;;;;;;10.10;7.90;;;;;;;3.87;89.52;97816.12;108561;1270;37669;-75
2023/01/17 04:47:14;;;;;;;11.10;8.60;;;;;;;3.87;89.67;97825.58;108437;1261;37168;-76
2023/01/17 04:49:45;;;;;;;10.70;8.50;;;;;;;3.85;89.26;97826.42;108485;1258;36971;-76
2023/01/17 04:52:19;;;;;;;10.30;7.80;;;;;;;3.85;89.39;97825.04;108454;1258;36470;-75
2023/01/17 04:54:51;;;;;;;13.10;8.10;;;;;;;3.83;89.41;97819.45;108550;1258;37078;-73
2023/01/17 04:57:23;;;;;;;8.90;8.00;;;;;;;3.85;89.53;97823.81;108507;1258;37263;-75
2023/01/17 04:59:54;;;;;;;13.00;9.10;;;;;;;3.87;89.48;97832.84;108442;1277;174837;-74
2023/01/17 05:02:29;;;;;;;12.60;8.80;;;;;;;3.87;89.48;97831.62;108461;1257;37109;-74
2023/01/17 05:05:00;;;;;;;11.30;9.00;;;;;;;3.86;89.57;97830.48;108388;1277;37115;-75
2023/01/17 05:07:32;;;;;;;12.00;8.90;;;;;;;3.85;89.26;97833.48;108434;1256;36751;-75
2023/01/17 05:10:05;;;;;;;10.90;8.00;;;;;;;3.83;89.39;97834.77;108472;1256;37017;-75
2023/01/17 05:12:38;;;;;;;12.30;8.30;;;;;;;3.83;89.27;97834.60;108557;1277;36678;-75
2023/01/17 05:15:10;;;;;;;12.40;9.40;;;;;;;3.83;89.30;97834.42;108503;1255;37122;-74
2023/01/17 05:17:42;;;;;;;13.10;9.80;;;;;;;3.83;89.46;97832.35;108384;1264;37572;-74
2023/01/17 05:20:13;;;;;;;10.90;8.30;;;;;;;3.82;89.10;97834.86;108521;1264;37403;-74
2023/01/17 05:22:46;;;;;;;10.80;8.00;;;;;;;3.80;89.03;97832.88;108611;1277;37223;-74
2023/01/17 05:25:17;;;;;;;10.70;8.40;;;;;;;3.80;89.15;97842.38;108549;1258;37147;-74
2023/01/17 05:27:48;;;;;;;11.90;8.10;;;;;;;3.79;89.07;97845.86;108434;1275;174977;-75
2023/01/17 05:30:23;;;;;;;10.60;8.70;;;;;;;3.77;88.95;97850.60;108460;1257;187690;-72
2023/01/17 05:32:57;;;;;;;11.80;9.70;;;;;;;3.75;88.84;97846.77;108530;1258;37182;-73
2023/01/17 05:35:31;;;;;;;12.20;8.60;;;;;;;3.73;88.89;97845.85;108398;1267;38008;-74
2023/01/17 05:38:04;;;;;;;11.60;9.10;;;;;;;3.70;88.82;97846.46;108550;1254;37078;-73
2023/01/17 05:40:38;;;;;;;11.90;8.60;;;;;;;3.68;88.82;97842.98;108526;1258;37338;-74
2023/01/17 05:43:09;;;;;;;12.50;8.70;;;;;;;3.66;88.84;97845.65;108529;1258;37279;-74
2023/01/17 05:45:40;;;;;;;12.60;9.70;;;;;;;3.64;88.93;97844.39;108568;1257;37441;-73
2023/01/17 05:48:11;;;;;;;12.30;9.60;;;;;;;3.61;88.98;97843.33;108350;1263;36837;-73
2023/01/17 05:50:42;;;;;;;11.00;8.40;;;;;;;3.57;88.86;97850.25;108433;1274;36632;-74
2023/01/17 05:53:15;;;;;;;12.40;9.00;;;;;;;3.50;88.69;97854.02;108423;1277;36309;-73
2023/01/17 05:55:50;;;;;;;13.40;11.20;;;;;;;3.46;89.00;97860.95;108662;1257;37026;-75
2023/01/17 05:58:23;;;;;;;20.20;15.90;;;;;;;3.47;88.94;97858.52;108607;1258;37009;-74
2023/01/17 06:00:55;;;;;;;31.10;22.50;;;;;;;3.44;89.18;97861.91;108623;1262;38698;-73
2023/01/17 06:03:29;;;;;;;35.90;24.40;;;;;;;3.37;88.83;97862.25;108530;1257;37027;-73
2023/01/17 06:06:01;;;;;;;39.60;27.40;;;;;;;3.33;89.12;97864.02;108548;1257;36217;-74
2023/01/17 06:08:35;;;;;;;40.30;26.30;;;;;;;3.30;88.96;97871.92;108443;1258;175089;-73
2023/01/17 06:11:12;;;;;;;34.00;24.60;;;;;;;3.29;89.29;97869.55;108603;1257;37691;-73
2023/01/17 06:13:49;;;;;;;33.80;23.60;;;;;;;3.27;89.46;97864.12;108419;1260;37220;-73
2023/01/17 06:16:22;;;;;;;30.80;19.50;;;;;;;3.23;89.17;97859.88;108570;1254;37105;-75
2023/01/17 06:18:53;;;;;;;33.00;21.50;;;;;;;3.15;89.21;97864.05;108542;1258;37198;-72
2023/01/17 06:21:25;;;;;;;21.10;15.60;;;;;;;3.09;89.20;97861.89;108571;1260;36027;-74
2023/01/17 06:24:00;;;;;;;18.70;13.00;;;;;;;3.05;89.17;97857.58;108553;1265;37574;-74
2023/01/17 06:26:32;;;;;;;13.80;10.60;;;;;;;3.01;89.18;97855.55;108577;1277;37112;-73
2023/01/17 06:29:04;;;;;;;16.50;11.00;;;;;;;2.95;89.34;97857.73;108523;1258;36561;-73
2023/01/17 06:31:38;;;;;;;15.30;10.90;;;;;;;2.91;89.48;97859.13;108557;1257;36283;-73
2023/01/17 06:34:11;;;;;;;14.80;10.80;;;;;;;2.87;89.61;97858.98;108374;1277;36962;-74
2023/01/17 06:36:44;;;;;;;14.40;10.10;;;;;;;2.84;89.45;97859.81;108595;1255;37018;-71
2023/01/17 06:39:15;;;;;;;10.30;8.70;;;;;;;2.81;89.66;97862.73;108528;1259;38505;-72
2023/01/17 06:41:49;;;;;;;12.00;9.50;;;;;;;2.78;89.80;97866.81;108544;1277;37153;-73
2023/01/17 06:44:26;;;;;;;13.10;9.00;;;;;;;2.76;89.77;97873.48;108510;1277;37079;-70
2023/01/17 06:46:58;;;;;;;12.40;9.50;;;;;;;2.74;89.70;97888.00;108552;1277;37062;-73
2023/01/17 06:49:30;;;;;;;12.10;9.50;;;;;;;2.69;89.26;97895.64;108551;1258;36443;-73
2023/01/17 06:52:02;;;;;;;10.40;8.20;;;;;;;2.64;89.72;97887.41;108539;1254;38433;-74
2023/01/17 06:54:33;;;;;;;14.00;8.40;;;;;;;2.63;89.97;97898.50;108572;1277;36140;-73
2023/01/17 06:57:05;;;;;;;11.40;8.80;;;;;;;2.63;89.80;97900.42;108517;1277;37434;-73
2023/01/17 06:59:36;;;;;;;10.40;8.50;;;;;;;2.63;90.01;97898.67;108572;1258;37277;-72
2023/01/17 07:02:10;;;;;;;11.80;8.80;;;;;;;2.65;90.30;97904.94;108575;1258;37015;-73
2023/01/17 07:04:42;;;;;;;12.90;9.00;;;;;;;2.66;90.33;97909.02;108579;1258;37674;-73
2023/01/17 07:07:13;;;;;;;12.40;9.30;;;;;;;2.65;90.18;97911.30;108531;1256;37014;-73
2023/01/17 07:09:45;;;;;;;11.70;9.00;;;;;;;2.65;90.48;97915.63;108536;1258;37298;-72
2023/01/17 07:12:20;;;;;;;10.90;8.30;;;;;;;2.64;90.33;97914.09;108572;1258;36212;-74
2023/01/17 07:14:51;;;;;;;10.30;7.90;;;;;;;2.65;90.47;97915.95;108568;1261;37311;-72
2023/01/17 07:17:23;;;;;;;12.80;9.60;;;;;;;2.67;90.44;97914.84;108491;1267;37589;-72
2023/01/17 07:19:54;;;;;;;12.70;8.60;;;;;;;2.69;90.47;97915.05;108548;1258;38775;-71
2023/01/17 07:22:25;;;;;;;12.40;9.10;;;;;;;2.71;90.51;97909.64;108521;1277;37855;-71
2023/01/17 07:24:58;;;;;;;11.50;8.50;;;;;;;2.73;90.67;97908.00;108581;1266;35984;-73
2023/01/17 07:27:30;;;;;;;9.60;7.30;;;;;;;2.86;90.43;97912.42;108569;1258;37173;-73
2023/01/17 07:30:01;;;;;;;12.20;8.90;;;;;;;3.02;90.72;97914.08;108583;1254;37086;-74
2023/01/17 07:32:33;;;;;;;11.40;8.80;;;;;;;3.39;91.18;97907.98;108472;1260;37275;-74
2023/01/17 07:35:04;;;;;;;13.50;8.20;;;;;;;4.01;92.19;97905.46;108431;1255;172928;-73
2023/01/17 07:37:36;;;;;;;11.70;7.90;;;;;;;4.75;91.70;97897.06;108373;1261;38994;-74
2023/01/17 07:40:13;;;;;;;9.00;7.40;;;;;;;5.32;90.20;97892.23;108000;1261;584692;-74
2023/01/17 07:42:44;;;;;;;9.40;7.30;;;;;;;5.85;89.28;97894.48;108565;1271;37031;-75
2023/01/17 07:45:17;;;;;;;9.80;7.40;;;;;;;6.61;89.06;97880.98;108557;1258;37377;-75
2023/01/17 07:47:54;;;;;;;9.70;7.50;;;;;;;7.26;86.00;97875.29;108549;1258;37297;-75
2023/01/17 07:50:29;;;;;;;10.30;7.30;;;;;;;7.73;83.91;97878.69;108491;1258;38028;-74
2023/01/17 07:53:01;;;;;;;9.20;7.40;;;;;;;7.95;81.54;97882.88;108498;1253;36467;-75
2023/01/17 07:55:35;;;;;;;9.30;7.80;;;;;;;8.11;80.84;97892.09;108438;1259;37154;-73
2023/01/17 07:58:07;;;;;;;9.80;7.50;;;;;;;8.16;79.50;97893.68;108556;1258;36488;-74
2023/01/17 08:00:38;;;;;;;10.30;7.30;;;;;;;8.18;78.97;97894.77;108555;1268;37076;-75
2023/01/17 08:03:17;;;;;;;8.50;7.50;;;;;;;7.98;75.74;97900.57;108436;1278;37579;-75
2023/01/17 08:05:56;;;;;;;8.60;7.60;;;;;;;7.72;76.12;97911.58;108479;1277;36317;-74
2023/01/17 08:08:28;;;;;;;9.90;7.50;;;;;;;7.43;76.25;97920.17;107830;1273;910322;-71
2023/01/17 08:10:59;;;;;;;9.00;7.50;;;;;;;7.18;75.87;97934.99;108474;1269;36772;-75
2023/01/17 08:13:34;;;;;;;8.50;6.70;;;;;;;6.93;75.67;97940.16;108523;1254;36984;-75
2023/01/17 08:16:07;;;;;;;10.00;7.20;;;;;;;6.61;75.49;97947.15;108557;1277;37042;-75
2023/01/17 08:18:40;;;;;;;11.10;7.50;;;;;;;6.36;76.15;97944.69;108512;1263;36760;-75
2023/01/17 08:21:15;;;;;;;10.10;6.50;;;;;;;6.14;75.94;97945.62;108550;1268;36997;-75
2023/01/17 08:23:49;;;;;;;8.50;6.70;;;;;;;5.93;76.24;97943.90;108271;1257;174703;-75
2023/01/17 08:26:21;;;;;;;8.70;7.10;;;;;;;5.77;76.75;97945.64;108557;1258;36820;-74
2023/01/17 08:28:56;;;;;;;9.70;7.50;;;;;;;5.68;77.33;97946.17;108562;1258;36315;-74
2023/01/17 08:31:31;;;;;;;9.80;7.60;;;;;;;5.61;77.37;97943.83;108562;1270;37080;-74
2023/01/17 08:34:02;;;;;;;9.70;7.20;;;;;;;5.53;77.67;97942.87;108530;1277;36966;-75
2023/01/17 08:36:35;;;;;;;8.00;6.00;;;;;;;5.50;78.24;97938.56;108566;1277;36979;-74
2023/01/17 08:39:06;;;;;;;7.30;6.40;;;;;;;5.50;78.69;97938.74;108497;1277;38081;-74
2023/01/17 08:41:41;;;;;;;10.40;6.80;;;;;;;5.50;78.91;97934.58;108549;1258;36988;-75
2023/01/17 08:44:14;;;;;;;9.10;7.10;;;;;;;5.48;78.49;97936.41;108228;1261;37188;-75
2023/01/17 08:46:46;;;;;;;9.20;7.10;;;;;;;5.44;78.68;97932.31;108446;1272;36762;-75
2023/01/17 08:49:18;;;;;;;10.10;7.00;;;;;;;5.42;79.20;97929.48;108542;1258;37150;-75
2023/01/17 08:51:50;;;;;;;8.90;6.50;;;;;;;5.39;78.56;97920.85;108485;1277;36483;-75
2023/01/17 08:54:22;;;;;;;8.00;6.40;;;;;;;5.36;78.68;97919.98;108507;1277;38673;-75
2023/01/17 08:56:57;;;;;;;7.90;6.20;;;;;;;5.35;79.03;97914.68;108524;1277;37531;-74
2023/01/17 08:59:31;;;;;;;9.20;7.10;;;;;;;5.37;79.24;97913.00;108536;1258;37064;-77
2023/01/17 09:02:13;;;;;;;11.50;7.00;;;;;;;5.39;79.50;97912.69;108549;1258;37438;-76
2023/01/17 09:04:54;;;;;;;7.30;6.40;;;;;;;5.43;78.93;97912.14;108541;1256;37062;-75
2023/01/17 09:07:32;;;;;;;8.60;6.70;;;;;;;5.43;79.57;97909.39;108432;1260;38563;-76
2023/01/17 09:10:04;;;;;;;8.40;6.10;;;;;;;5.43;79.67;97908.86;108526;1258;37136;-75
2023/01/17 09:12:37;;;;;;;7.50;6.00;;;;;;;5.41;79.38;97906.56;108422;1275;38635;-74
2023/01/17 09:15:16;;;;;;;6.50;5.80;;;;;;;5.41;79.61;97910.50;108480;1269;37269;-74
2023/01/17 09:17:55;;;;;;;8.90;7.00;;;;;;;5.44;79.55;97909.17;108511;1254;37288;-75
2023/01/17 09:20:31;;;;;;;7.70;5.70;;;;;;;5.47;79.43;97909.68;108525;1258;37597;-75
2023/01/17 09:23:09;;;;;;;8.40;6.70;;;;;;;5.49;79.49;97914.38;108502;1266;36797;-75
2023/01/17 09:25:45;;;;;;;9.40;7.10;;;;;;;5.49;79.34;97915.98;108595;1258;37114;-74
2023/01/17 09:28:16;;;;;;;8.10;6.50;;;;;;;5.48;79.17;97916.39;108549;1258;37167;-75
2023/01/17 09:30:49;;;;;;;9.50;6.90;;;;;;;5.44;79.02;97921.12;108564;1277;37046;-76
2023/01/17 09:33:24;;;;;;;10.40;6.80;;;;;;;5.41;79.08;97924.88;108522;1258;36974;-75
2023/01/17 09:35:55;;;;;;;6.70;5.80;;;;;;;5.42;79.42;97927.61;108438;1261;37596;-74
2023/01/17 09:38:27;;;;;;;8.10;6.70;;;;;;;5.44;79.30;97930.95;108511;1277;37044;-74
2023/01/17 09:41:00;;;;;;;9.50;6.60;;;;;;;5.44;79.31;97933.90;108439;1261;37567;-74
2023/01/17 09:43:39;;;;;;;9.40;6.80;;;;;;;5.39;79.10;97939.19;108434;1256;38060;-74
2023/01/17 09:46:21;;;;;;;9.80;7.20;;;;;;;5.34;78.82;97942.02;108524;1277;36124;-74
2023/01/17 09:49:00;;;;;;;8.50;7.00;;;;;;;5.30;79.02;97944.89;108525;1260;37627;-73
2023/01/17 09:51:31;;;;;;;8.30;6.80;;;;;;;5.29;79.33;97937.00;108537;1256;37475;-73
2023/01/17 09:54:02;;;;;;;8.70;6.70;;;;;;;5.27;79.09;97937.92;108502;1267;37334;-73
2023/01/17 09:56:36;;;;;;;9.50;6.40;;;;;;;5.27;79.18;97941.59;108533;1255;37074;-72
2023/01/17 09:59:28;;;;;;;8.90;6.90;;;;;;;5.28;79.37;97939.29;108533;1277;37071;-73
2023/01/17 10:02:11;;;;;;;8.10;6.50;;;;;;;5.28;79.57;97942.05;108406;1277;37243;-72
2023/01/17 10:05:15;;;;;;;10.70;7.10;;;;;;;5.29;79.44;97946.69;108570;1256;36935;-75
2023/01/17 10:07:54;;;;;;;9.20;6.50;;;;;;;5.27;78.92;97944.70;108509;1277;37016;-75
2023/01/17 10:10:37;;;;;;;8.60;6.40;;;;;;;5.27;79.00;97948.48;108547;1256;36955;-74
2023/01/17 10:13:20;;;;;;;8.40;6.60;;;;;;;5.29;79.07;97952.54;108552;1256;36991;-75
2023/01/17 10:16:14;;;;;;;9.70;6.50;;;;;;;5.30;79.32;97958.02;108545;1255;37170;-72
2023/01/17 10:19:23;;;;;;;8.90;7.20;;;;;;;5.29;78.91;97958.08;108550;1265;38454;-75
2023/01/17 10:22:33;;;;;;;11.50;6.70;;;;;;;5.25;78.89;97962.07;108501;1258;38800;-74
2023/01/17 10:25:25;;;;;;;9.70;6.50;;;;;;;5.22;78.92;97959.15;108043;1266;37200;-75
2023/01/17 10:27:59;;;;;;;9.50;6.40;;;;;;;5.20;79.03;97958.38;108036;1265;37387;-77
2023/01/17 10:30:33;;;;;;;11.60;6.90;;;;;;;5.25;78.98;97962.11;108346;1277;38695;-75
2023/01/17 10:33:16;;;;;;;9.40;6.50;;;;;;;5.27;78.59;97964.41;108519;1258;37061;-74
2023/01/17 10:35:56;;;;;;;11.90;7.10;;;;;;;5.28;78.99;97961.91;108550;1254;37101;-75
2023/01/17 10:38:35;;;;;;;10.00;6.90;;;;;;;5.31;78.94;97964.84;108447;1255;37243;-75
2023/01/17 10:41:20;;;;;;;8.30;6.50;;;;;;;5.32;78.70;97964.48;108615;1277;36139;-76
2023/01/17 10:44:05;;;;;;;10.60;6.80;;;;;;;5.32;78.64;97972.41;108554;1277;37320;-76
2023/01/17 10:46:41;;;;;;;10.60;6.80;;;;;;;5.33;78.30;97968.73;108581;1258;36995;-74
2023/01/17 10:49:22;;;;;;;8.60;6.30;;;;;;;5.33;78.11;97965.61;108522;1271;38667;-75
2023/01/17 10:52:09;;;;;;;8.80;6.90;;;;;;;5.35;78.41;97968.98;108600;1259;37591;-75
2023/01/17 10:55:18;;;;;;;9.10;7.00;;;;;;;5.35;78.15;97965.33;108550;1258;37370;-75
2023/01/17 10:57:52;;;;;;;;;;;;;;;5.34;78.54;97959.52;108457;1259;38571;-75
2023/01/17 11:00:38;;;;;;;10.80;7.30;;;;;;;5.33;78.23;97964.25;108561;1265;36984;-75
2023/01/17 11:03:13;;;;;;;9.00;6.80;;;;;;;5.35;78.21;97967.59;108531;1277;37493;-75
2023/01/17 11:05:46;;;;;;;10.10;6.90;;;;;;;5.34;78.03;97964.02;108495;1267;36885;-76
2023/01/17 11:08:21;;;;;;;11.50;7.20;;;;;;;5.34;78.06;97969.02;108518;1261;36593;-75
2023/01/17 11:10:55;;;;;;;9.90;6.80;;;;;;;5.34;77.80;97968.52;108497;1277;37347;-75
2023/01/17 11:13:29;;;;;;;10.00;7.00;;;;;;;5.35;77.78;97970.00;108522;1277;37260;-76
2023/01/17 11:16:02;;;;;;;9.60;7.00;;;;;;;5.35;77.85;97967.09;108560;1255;37788;-75
2023/01/17 11:18:35;;;;;;;9.10;7.20;;;;;;;5.33;77.56;97971.46;108565;1258;37269;-75
2023/01/17 11:21:22;;;;;;;10.30;7.50;;;;;;;5.33;78.02;97974.08;108533;1260;37024;-74
2023/01/17 11:23:56;;;;;;;9.30;7.20;;;;;;;5.33;77.96;97970.61;108559;1256;36600;-74
2023/01/17 11:26:31;;;;;;;9.40;7.50;;;;;;;5.34;77.96;97965.02;108528;1258;37187;-73
2023/01/17 11:29:26;;;;;;;10.80;7.60;;;;;;;5.36;77.90;97966.13;108457;1262;37093;-73
2023/01/17 11:32:00;;;;;;;9.50;7.20;;;;;;;5.37;78.05;97967.63;108577;1277;37107;-74
2023/01/17 11:34:31;;;;;;;10.10;7.80;;;;;;;5.39;78.05;97970.11;108525;1255;37059;-74
2023/01/17 11:37:28;;;;;;;11.20;7.40;;;;;;;5.40;77.98;97974.20;108448;1260;37445;-76
2023/01/17 11:40:21;;;;;;;10.60;7.00;;;;;;;5.43;78.05;97977.49;108615;1277;37234;-73
2023/01/17 11:43:07;;;;;;;9.50;7.10;;;;;;;5.48;77.97;97981.23;108587;1269;37209;-73
2023/01/17 11:45:42;;;;;;;8.30;7.10;;;;;;;5.51;77.57;97981.59;108629;1256;36412;-74
2023/01/17 11:48:17;;;;;;;10.10;7.30;;;;;;;5.49;77.42;97982.35;108575;1277;37441;-75
2023/01/17 11:50:55;;;;;;;10.60;8.20;;;;;;;5.50;77.36;97979.52;108575;1254;36326;-75
2023/01/17 11:53:32;;;;;;;17.10;7.90;;;;;;;5.52;77.44;97980.66;108599;1276;37126;-75
2023/01/17 11:56:07;;;;;;;10.10;7.60;;;;;;;5.52;77.06;97984.12;108519;1258;37509;-74
2023/01/17 11:58:41;;;;;;;12.60;7.40;;;;;;;5.53;77.15;97983.71;108474;1255;37196;-73
2023/01/17 12:01:32;;;;;;;11.50;7.40;;;;;;;5.53;76.71;97983.36;108501;1259;36954;-75
2023/01/17 12:04:26;;;;;;;10.90;7.40;;;;;;;5.54;76.82;97987.29;108553;1259;37005;-74
2023/01/17 12:07:33;;;;;;;9.70;7.80;;;;;;;5.55;76.59;97989.13;108572;1277;36986;-75
2023/01/17 12:10:11;;;;;;;10.50;7.70;;;;;;;5.49;76.49;97992.56;108181;1259;37221;-74
2023/01/17 12:15:58;;;;;;;10.90;7.60;;;;;;;5.51;76.74;97992.46;108523;1255;35960;-77
2023/01/17 12:18:38;;;;;;;10.90;7.80;;;;;;;5.51;76.85;97991.59;108536;1258;37520;-75
2023/01/17 12:21:19;;;;;;;10.90;8.00;;;;;;;5.50;76.29;97989.05;108524;1258;37078;-75
2023/01/17 12:24:32;;;;;;;12.40;7.90;;;;;;;5.50;76.81;97986.48;108508;1259;37296;-76
2023/01/17 12:27:09;;;;;;;12.20;8.00;;;;;;;5.46;76.56;97985.28;108232;1262;37185;-75
2023/01/17 12:29:48;;;;;;;13.90;9.40;;;;;;;5.44;76.72;97989.20;108537;1258;36819;-75
2023/01/17 12:32:55;;;;;;;10.80;8.40;;;;;;;5.43;76.70;97983.03;108501;1261;36260;-75
2023/01/17 12:35:30;;;;;;;10.50;7.90;;;;;;;5.39;76.54;97981.02;108557;1268;37272;-72
2023/01/17 12:38:05;;;;;;;10.60;8.00;;;;;;;5.38;76.59;97981.77;108434;1256;37246;-74
2023/01/17 12:40:39;;;;;;;11.10;8.40;;;;;;;5.41;76.89;97980.52;108541;1277;36973;-74
2023/01/17 12:43:15;;;;;;;11.70;8.20;;;;;;;5.42;76.45;97980.85;108535;1268;36298;-74
2023/01/17 12:45:58;;;;;;;13.00;8.50;;;;;;;5.37;76.36;97983.73;108537;1256;37119;-76
2023/01/17 12:48:33;;;;;;;11.90;8.60;;;;;;;5.37;76.65;97981.48;108607;1262;37205;-75
2023/01/17 12:51:05;;;;;;;10.10;8.10;;;;;;;5.39;76.86;97989.82;108537;1258;37008;-73
2023/01/17 12:53:41;;;;;;;12.90;8.50;;;;;;;5.43;76.89;97994.65;108491;1258;40059;-74
2023/01/17 12:56:18;;;;;;;12.30;8.80;;;;;;;5.47;76.95;97992.70;108480;1255;36959;-73
2023/01/17 12:58:52;;;;;;;14.40;9.20;;;;;;;5.49;77.05;97998.65;108485;1261;37095;-74
2023/01/17 13:01:38;;;;;;;12.80;9.20;;;;;;;5.50;76.93;97994.41;108599;1277;36970;-76
2023/01/17 13:04:18;;;;;;;14.50;9.50;;;;;;;5.48;76.83;97996.60;107870;1277;912195;-75
2023/01/17 13:06:59;;;;;;;14.20;9.10;;;;;;;5.45;76.82;97999.70;108484;1265;37067;-75
2023/01/17 13:09:38;;;;;;;12.60;8.70;;;;;;;5.43;76.83;97993.73;108561;1277;37065;-74
2023/01/17 13:12:12;;;;;;;12.80;9.30;;;;;;;5.43;76.88;97993.07;108507;1260;36288;-74
2023/01/17 13:14:53;;;;;;;14.00;9.40;;;;;;;5.42;76.95;98000.40;108586;1258;36325;-75
2023/01/17 13:17:35;;;;;;;14.60;9.50;;;;;;;5.39;76.91;97998.15;108558;1277;37197;-74
2023/01/17 13:20:16;;;;;;;13.50;9.70;;;;;;;5.35;77.00;97993.52;108563;1277;37346;-72
2023/01/17 13:22:50;;;;;;;15.80;9.60;;;;;;;5.31;76.98;97991.84;108513;1277;36128;-73
2023/01/17 13:25:33;;;;;;;14.00;8.90;;;;;;;5.28;77.03;97992.53;108557;1277;37180;-73
2023/01/17 13:28:11;;;;;;;12.80;8.90;;;;;;;5.25;76.80;97989.59;108386;1261;172838;-73
2023/01/17 13:31:11;;;;;;;13.70;9.40;;;;;;;5.21;77.21;97983.05;108453;1268;37093;-73
2023/01/17 13:34:14;;;;;;;16.90;10.00;;;;;;;5.17;77.18;97985.31;108393;1257;37357;-74
2023/01/17 13:36:59;;;;;;;16.20;9.50;;;;;;;5.12;77.29;97986.12;108487;1269;37135;-73